sensor_id;sensor_type;location;lat;lon;timestamp;P1;durP1;ratioP1;P2;durP2;ratioP2
4698;SDS011;33708;49.466;11.176;2023-02-15T00:00:15;91.03;;;12.10;;
4698;SDS011;33708;49.466;11.176;2023-02-15T00:02:40;28.83;;;12.30;;
4698;SDS011;33708;49.466;11.176;2023-02-15T00:05:06;25.83;;;12.50;;
4698;SDS011;33708;49.466;11.176;2023-02-15T00:07:33;56.33;;;16.27;;
4698;SDS011;33708;49.466;11.176;2023-02-15T00:09:58;59.93;;;14.90;;
4698;SDS011;33708;49.466;11.176;2023-02-15T00:12:24;93.00;;;13.90;;
4698;SDS011;33708;49.466;11.176;2023-02-15T00:14:50;32.67;;;13.40;;
4698;SDS011;33708;49.466;11.176;2023-02-15T00:17:15;23.47;;;11.70;;
4698;SDS011;33708;49.466;11.176;2023-02-15T00:19:41;29.10;;;12.90;;
4698;SDS011;33708;49.466;11.176;2023-02-15T00:22:07;36.83;;;13.60;;
4698;SDS011;33708;49.466;11.176;2023-02-15T00:24:32;31.00;;;12.17;;
4698;SDS011;33708;49.466;11.176;2023-02-15T00:26:58;34.57;;;13.27;;
4698;SDS011;33708;49.466;11.176;2023-02-15T00:29:24;22.50;;;11.60;;
4698;SDS011;33708;49.466;11.176;2023-02-15T00:31:50;22.30;;;11.37;;
4698;SDS011;33708;49.466;11.176;2023-02-15T00:34:18;72.30;;;13.40;;
4698;SDS011;33708;49.466;11.176;2023-02-15T00:36:48;35.03;;;14.17;;
4698;SDS011;33708;49.466;11.176;2023-02-15T00:39:15;25.70;;;14.83;;
4698;SDS011;33708;49.466;11.176;2023-02-15T00:41:41;22.30;;;10.97;;
4698;SDS011;33708;49.466;11.176;2023-02-15T00:44:07;21.80;;;11.30;;
4698;SDS011;33708;49.466;11.176;2023-02-15T00:46:33;28.37;;;13.20;;
4698;SDS011;33708;49.466;11.176;2023-02-15T00:48:59;24.80;;;12.47;;
4698;SDS011;33708;49.466;11.176;2023-02-15T00:51:25;30.63;;;11.70;;
4698;SDS011;33708;49.466;11.176;2023-02-15T00:53:51;26.10;;;12.37;;
4698;SDS011;33708;49.466;11.176;2023-02-15T00:56:17;22.23;;;12.17;;
4698;SDS011;33708;49.466;11.176;2023-02-15T00:58:42;24.00;;;12.53;;
4698;SDS011;33708;49.466;11.176;2023-02-15T01:01:09;35.13;;;12.73;;
4698;SDS011;33708;49.466;11.176;2023-02-15T01:03:40;28.90;;;13.47;;
4698;SDS011;33708;49.466;11.176;2023-02-15T01:06:10;22.30;;;11.57;;
4698;SDS011;33708;49.466;11.176;2023-02-15T01:08:36;20.33;;;10.77;;
4698;SDS011;33708;49.466;11.176;2023-02-15T01:11:05;22.57;;;11.37;;
4698;SDS011;33708;49.466;11.176;2023-02-15T01:13:33;21.10;;;10.90;;
4698;SDS011;33708;49.466;11.176;2023-02-15T01:15:59;26.93;;;13.17;;
4698;SDS011;33708;49.466;11.176;2023-02-15T01:18:25;21.20;;;11.10;;
4698;SDS011;33708;49.466;11.176;2023-02-15T01:20:51;23.70;;;12.10;;
4698;SDS011;33708;49.466;11.176;2023-02-15T01:23:17;24.53;;;12.07;;
4698;SDS011;33708;49.466;11.176;2023-02-15T01:25:43;40.60;;;13.50;;
4698;SDS011;33708;49.466;11.176;2023-02-15T01:28:09;29.17;;;13.17;;
4698;SDS011;33708;49.466;11.176;2023-02-15T01:30:34;32.07;;;12.17;;
4698;SDS011;33708;49.466;11.176;2023-02-15T01:33:00;24.10;;;12.47;;
4698;SDS011;33708;49.466;11.176;2023-02-15T01:35:26;26.53;;;13.60;;
4698;SDS011;33708;49.466;11.176;2023-02-15T01:37:52;20.80;;;11.33;;
4698;SDS011;33708;49.466;11.176;2023-02-15T01:40:18;24.57;;;12.60;;
4698;SDS011;33708;49.466;11.176;2023-02-15T01:42:44;23.60;;;11.93;;
4698;SDS011;33708;49.466;11.176;2023-02-15T01:45:16;23.00;;;11.40;;
4698;SDS011;33708;49.466;11.176;2023-02-15T01:50:37;20.00;;;11.03;;
4698;SDS011;33708;49.466;11.176;2023-02-15T01:53:12;23.50;;;12.23;;
4698;SDS011;33708;49.466;11.176;2023-02-15T01:55:50;22.60;;;11.67;;
4698;SDS011;33708;49.466;11.176;2023-02-15T01:58:23;24.13;;;12.57;;
4698;SDS011;33708;49.466;11.176;2023-02-15T02:00:50;21.10;;;10.90;;
4698;SDS011;33708;49.466;11.176;2023-02-15T02:03:16;27.17;;;12.73;;
4698;SDS011;33708;49.466;11.176;2023-02-15T02:05:45;30.13;;;15.60;;
4698;SDS011;33708;49.466;11.176;2023-02-15T02:08:12;26.97;;;13.73;;
4698;SDS011;33708;49.466;11.176;2023-02-15T02:10:38;27.00;;;15.50;;
4698;SDS011;33708;49.466;11.176;2023-02-15T02:13:04;32.23;;;13.07;;
4698;SDS011;33708;49.466;11.176;2023-02-15T02:15:39;23.40;;;12.63;;
4698;SDS011;33708;49.466;11.176;2023-02-15T02:18:26;20.60;;;11.00;;
4698;SDS011;33708;49.466;11.176;2023-02-15T02:39:03;26.43;;;13.03;;
4698;SDS011;33708;49.466;11.176;2023-02-15T02:41:43;28.33;;;14.40;;
4698;SDS011;33708;49.466;11.176;2023-02-15T02:44:22;25.80;;;13.50;;
4698;SDS011;33708;49.466;11.176;2023-02-15T02:49:45;24.70;;;12.43;;
4698;SDS011;33708;49.466;11.176;2023-02-15T02:55:05;23.70;;;12.00;;
4698;SDS011;33708;49.466;11.176;2023-02-15T02:57:34;26.20;;;13.03;;
4698;SDS011;33708;49.466;11.176;2023-02-15T03:00:05;25.83;;;13.50;;
4698;SDS011;33708;49.466;11.176;2023-02-15T03:02:34;22.07;;;12.47;;
4698;SDS011;33708;49.466;11.176;2023-02-15T03:05:05;26.50;;;12.47;;
4698;SDS011;33708;49.466;11.176;2023-02-15T03:07:36;24.47;;;12.33;;
4698;SDS011;33708;49.466;11.176;2023-02-15T03:10:03;21.40;;;11.50;;
4698;SDS011;33708;49.466;11.176;2023-02-15T03:12:34;24.03;;;12.23;;
4698;SDS011;33708;49.466;11.176;2023-02-15T03:15:04;27.57;;;13.80;;
4698;SDS011;33708;49.466;11.176;2023-02-15T03:17:45;27.53;;;14.33;;
4698;SDS011;33708;49.466;11.176;2023-02-15T03:20:32;26.20;;;13.40;;
4698;SDS011;33708;49.466;11.176;2023-02-15T03:23:09;37.93;;;14.37;;
4698;SDS011;33708;49.466;11.176;2023-02-15T03:25:47;25.10;;;12.80;;
4698;SDS011;33708;49.466;11.176;2023-02-15T03:28:40;28.50;;;14.33;;
4698;SDS011;33708;49.466;11.176;2023-02-15T03:31:05;25.50;;;13.10;;
4698;SDS011;33708;49.466;11.176;2023-02-15T03:33:33;21.77;;;11.03;;
4698;SDS011;33708;49.466;11.176;2023-02-15T03:36:11;29.07;;;14.63;;
4698;SDS011;33708;49.466;11.176;2023-02-15T03:38:51;29.50;;;15.67;;
4698;SDS011;33708;49.466;11.176;2023-02-15T03:41:25;27.10;;;13.33;;
4698;SDS011;33708;49.466;11.176;2023-02-15T03:44:04;25.60;;;13.50;;
4698;SDS011;33708;49.466;11.176;2023-02-15T03:46:43;26.03;;;13.80;;
4698;SDS011;33708;49.466;11.176;2023-02-15T03:49:15;30.43;;;15.23;;
4698;SDS011;33708;49.466;11.176;2023-02-15T03:51:46;32.33;;;16.10;;
4698;SDS011;33708;49.466;11.176;2023-02-15T03:57:02;28.77;;;14.47;;
4698;SDS011;33708;49.466;11.176;2023-02-15T03:59:51;31.67;;;16.10;;
4698;SDS011;33708;49.466;11.176;2023-02-15T04:05:39;30.30;;;15.13;;
4698;SDS011;33708;49.466;11.176;2023-02-15T04:08:05;36.00;;;18.60;;
4698;SDS011;33708;49.466;11.176;2023-02-15T04:10:31;31.60;;;16.37;;
4698;SDS011;33708;49.466;11.176;2023-02-15T04:13:15;28.70;;;14.50;;
4698;SDS011;33708;49.466;11.176;2023-02-15T04:15:41;32.73;;;16.40;;
4698;SDS011;33708;49.466;11.176;2023-02-15T04:18:25;36.50;;;19.20;;
4698;SDS011;33708;49.466;11.176;2023-02-15T04:21:10;32.93;;;17.10;;
4698;SDS011;33708;49.466;11.176;2023-02-15T04:23:54;35.40;;;17.90;;
4698;SDS011;33708;49.466;11.176;2023-02-15T04:26:38;34.73;;;17.50;;
4698;SDS011;33708;49.466;11.176;2023-02-15T04:29:03;32.70;;;16.73;;
4698;SDS011;33708;49.466;11.176;2023-02-15T04:31:29;36.40;;;17.97;;
4698;SDS011;33708;49.466;11.176;2023-02-15T04:33:55;31.37;;;16.20;;
4698;SDS011;33708;49.466;11.176;2023-02-15T04:36:20;33.20;;;16.30;;
4698;SDS011;33708;49.466;11.176;2023-02-15T04:38:46;33.50;;;17.40;;
4698;SDS011;33708;49.466;11.176;2023-02-15T04:41:12;38.40;;;18.87;;
4698;SDS011;33708;49.466;11.176;2023-02-15T04:43:38;42.33;;;18.70;;
4698;SDS011;33708;49.466;11.176;2023-02-15T04:46:03;47.50;;;19.27;;
4698;SDS011;33708;49.466;11.176;2023-02-15T04:48:29;36.73;;;17.93;;
4698;SDS011;33708;49.466;11.176;2023-02-15T04:50:55;41.70;;;20.70;;
4698;SDS011;33708;49.466;11.176;2023-02-15T04:53:21;35.00;;;18.20;;
4698;SDS011;33708;49.466;11.176;2023-02-15T04:55:47;38.90;;;19.83;;
4698;SDS011;33708;49.466;11.176;2023-02-15T04:58:12;36.90;;;17.80;;
4698;SDS011;33708;49.466;11.176;2023-02-15T05:00:38;34.60;;;18.37;;
4698;SDS011;33708;49.466;11.176;2023-02-15T05:03:04;42.07;;;20.07;;
4698;SDS011;33708;49.466;11.176;2023-02-15T05:05:30;38.43;;;18.27;;
4698;SDS011;33708;49.466;11.176;2023-02-15T05:07:55;38.17;;;18.67;;
4698;SDS011;33708;49.466;11.176;2023-02-15T05:10:21;34.10;;;17.37;;
4698;SDS011;33708;49.466;11.176;2023-02-15T05:12:47;35.57;;;18.47;;
4698;SDS011;33708;49.466;11.176;2023-02-15T05:15:13;36.07;;;17.40;;
4698;SDS011;33708;49.466;11.176;2023-02-15T05:17:38;30.53;;;15.70;;
4698;SDS011;33708;49.466;11.176;2023-02-15T05:20:04;37.70;;;19.50;;
4698;SDS011;33708;49.466;11.176;2023-02-15T05:22:31;38.03;;;19.10;;
4698;SDS011;33708;49.466;11.176;2023-02-15T05:24:56;43.87;;;21.97;;
4698;SDS011;33708;49.466;11.176;2023-02-15T05:27:40;45.73;;;19.47;;
4698;SDS011;33708;49.466;11.176;2023-02-15T05:30:25;43.97;;;21.50;;
4698;SDS011;33708;49.466;11.176;2023-02-15T05:32:50;42.50;;;21.10;;
4698;SDS011;33708;49.466;11.176;2023-02-15T05:35:16;38.13;;;19.60;;
4698;SDS011;33708;49.466;11.176;2023-02-15T05:37:42;36.87;;;19.07;;
4698;SDS011;33708;49.466;11.176;2023-02-15T05:40:08;40.70;;;20.40;;
4698;SDS011;33708;49.466;11.176;2023-02-15T05:42:34;38.40;;;18.97;;
4698;SDS011;33708;49.466;11.176;2023-02-15T05:44:59;36.77;;;18.93;;
4698;SDS011;33708;49.466;11.176;2023-02-15T05:47:25;42.00;;;20.17;;
4698;SDS011;33708;49.466;11.176;2023-02-15T05:49:50;39.73;;;18.50;;
4698;SDS011;33708;49.466;11.176;2023-02-15T05:52:16;35.30;;;17.70;;
4698;SDS011;33708;49.466;11.176;2023-02-15T05:54:42;38.07;;;19.30;;
4698;SDS011;33708;49.466;11.176;2023-02-15T05:57:07;34.47;;;17.50;;
4698;SDS011;33708;49.466;11.176;2023-02-15T05:59:33;34.37;;;16.63;;
4698;SDS011;33708;49.466;11.176;2023-02-15T06:01:58;34.60;;;18.83;;
4698;SDS011;33708;49.466;11.176;2023-02-15T06:04:24;36.23;;;18.03;;
4698;SDS011;33708;49.466;11.176;2023-02-15T06:06:50;38.30;;;18.90;;
4698;SDS011;33708;49.466;11.176;2023-02-15T06:09:15;42.97;;;20.67;;
4698;SDS011;33708;49.466;11.176;2023-02-15T06:11:43;38.37;;;19.87;;
4698;SDS011;33708;49.466;11.176;2023-02-15T06:14:10;43.87;;;21.03;;
4698;SDS011;33708;49.466;11.176;2023-02-15T06:16:35;39.77;;;20.60;;
4698;SDS011;33708;49.466;11.176;2023-02-15T06:19:01;41.33;;;20.10;;
4698;SDS011;33708;49.466;11.176;2023-02-15T06:21:28;34.47;;;17.47;;
4698;SDS011;33708;49.466;11.176;2023-02-15T06:23:54;38.43;;;18.67;;
4698;SDS011;33708;49.466;11.176;2023-02-15T06:26:20;34.63;;;17.30;;
4698;SDS011;33708;49.466;11.176;2023-02-15T06:28:45;38.80;;;19.43;;
4698;SDS011;33708;49.466;11.176;2023-02-15T06:31:11;43.33;;;19.63;;
4698;SDS011;33708;49.466;11.176;2023-02-15T06:33:36;40.40;;;19.77;;
4698;SDS011;33708;49.466;11.176;2023-02-15T06:36:03;40.00;;;19.63;;
4698;SDS011;33708;49.466;11.176;2023-02-15T06:38:29;47.00;;;21.13;;
4698;SDS011;33708;49.466;11.176;2023-02-15T06:40:55;39.27;;;20.70;;
4698;SDS011;33708;49.466;11.176;2023-02-15T06:43:20;38.53;;;18.67;;
4698;SDS011;33708;49.466;11.176;2023-02-15T06:45:46;31.60;;;14.70;;
4698;SDS011;33708;49.466;11.176;2023-02-15T06:48:12;36.87;;;18.67;;
4698;SDS011;33708;49.466;11.176;2023-02-15T06:50:38;35.37;;;17.07;;
4698;SDS011;33708;49.466;11.176;2023-02-15T06:53:03;33.57;;;17.13;;
4698;SDS011;33708;49.466;11.176;2023-02-15T06:55:29;38.33;;;17.53;;
4698;SDS011;33708;49.466;11.176;2023-02-15T06:57:54;37.10;;;18.27;;
4698;SDS011;33708;49.466;11.176;2023-02-15T07:00:20;31.50;;;15.63;;
4698;SDS011;33708;49.466;11.176;2023-02-15T07:02:48;37.60;;;18.40;;
4698;SDS011;33708;49.466;11.176;2023-02-15T07:05:20;42.40;;;20.07;;
4698;SDS011;33708;49.466;11.176;2023-02-15T07:07:49;37.87;;;19.50;;
4698;SDS011;33708;49.466;11.176;2023-02-15T07:10:15;33.73;;;16.80;;
4698;SDS011;33708;49.466;11.176;2023-02-15T07:12:41;36.43;;;18.77;;
4698;SDS011;33708;49.466;11.176;2023-02-15T07:15:17;37.40;;;19.10;;
4698;SDS011;33708;49.466;11.176;2023-02-15T07:17:45;35.77;;;19.20;;
4698;SDS011;33708;49.466;11.176;2023-02-15T07:20:13;35.33;;;18.30;;
4698;SDS011;33708;49.466;11.176;2023-02-15T07:22:43;34.87;;;17.60;;
4698;SDS011;33708;49.466;11.176;2023-02-15T07:25:09;32.90;;;16.47;;
4698;SDS011;33708;49.466;11.176;2023-02-15T07:27:36;35.33;;;18.40;;
4698;SDS011;33708;49.466;11.176;2023-02-15T07:30:03;37.57;;;19.17;;
4698;SDS011;33708;49.466;11.176;2023-02-15T07:32:30;41.03;;;21.20;;
4698;SDS011;33708;49.466;11.176;2023-02-15T07:34:57;35.90;;;17.80;;
4698;SDS011;33708;49.466;11.176;2023-02-15T07:37:23;37.10;;;19.50;;
4698;SDS011;33708;49.466;11.176;2023-02-15T07:39:49;33.97;;;17.97;;
4698;SDS011;33708;49.466;11.176;2023-02-15T07:42:14;36.20;;;18.47;;
4698;SDS011;33708;49.466;11.176;2023-02-15T07:44:40;38.37;;;20.57;;
4698;SDS011;33708;49.466;11.176;2023-02-15T07:47:05;34.33;;;17.87;;
4698;SDS011;33708;49.466;11.176;2023-02-15T07:49:31;33.10;;;16.37;;
4698;SDS011;33708;49.466;11.176;2023-02-15T07:51:57;36.30;;;19.17;;
4698;SDS011;33708;49.466;11.176;2023-02-15T07:54:22;35.80;;;17.33;;
4698;SDS011;33708;49.466;11.176;2023-02-15T07:56:48;36.10;;;17.40;;
4698;SDS011;33708;49.466;11.176;2023-02-15T07:59:13;34.87;;;18.00;;
4698;SDS011;33708;49.466;11.176;2023-02-15T08:01:39;36.33;;;18.13;;
4698;SDS011;33708;49.466;11.176;2023-02-15T08:04:06;32.97;;;17.47;;
4698;SDS011;33708;49.466;11.176;2023-02-15T08:06:33;38.60;;;19.47;;
4698;SDS011;33708;49.466;11.176;2023-02-15T08:09:00;35.20;;;17.33;;
4698;SDS011;33708;49.466;11.176;2023-02-15T08:11:29;31.57;;;17.30;;
4698;SDS011;33708;49.466;11.176;2023-02-15T08:14:17;35.67;;;17.50;;
4698;SDS011;33708;49.466;11.176;2023-02-15T08:16:48;30.10;;;15.70;;
4698;SDS011;33708;49.466;11.176;2023-02-15T08:19:26;34.13;;;16.50;;
4698;SDS011;33708;49.466;11.176;2023-02-15T08:22:00;24.27;;;13.23;;
4698;SDS011;33708;49.466;11.176;2023-02-15T08:24:29;25.93;;;12.90;;
4698;SDS011;33708;49.466;11.176;2023-02-15T08:26:57;25.30;;;13.60;;
4698;SDS011;33708;49.466;11.176;2023-02-15T08:29:24;23.20;;;12.10;;
4698;SDS011;33708;49.466;11.176;2023-02-15T08:31:52;27.60;;;13.70;;
4698;SDS011;33708;49.466;11.176;2023-02-15T08:34:20;27.67;;;14.27;;
4698;SDS011;33708;49.466;11.176;2023-02-15T08:36:46;24.30;;;12.27;;
4698;SDS011;33708;49.466;11.176;2023-02-15T08:39:12;21.60;;;11.03;;
4698;SDS011;33708;49.466;11.176;2023-02-15T08:41:39;26.10;;;13.00;;
4698;SDS011;33708;49.466;11.176;2023-02-15T08:44:07;22.63;;;12.00;;
4698;SDS011;33708;49.466;11.176;2023-02-15T08:46:35;23.10;;;12.20;;
4698;SDS011;33708;49.466;11.176;2023-02-15T08:49:02;23.53;;;11.90;;
4698;SDS011;33708;49.466;11.176;2023-02-15T08:51:29;21.43;;;10.33;;
4698;SDS011;33708;49.466;11.176;2023-02-15T08:53:58;20.00;;;10.50;;
4698;SDS011;33708;49.466;11.176;2023-02-15T08:56:26;18.13;;;9.40;;
4698;SDS011;33708;49.466;11.176;2023-02-15T08:58:54;23.60;;;12.70;;
4698;SDS011;33708;49.466;11.176;2023-02-15T09:01:21;23.10;;;11.27;;
4698;SDS011;33708;49.466;11.176;2023-02-15T09:03:49;22.97;;;12.50;;
4698;SDS011;33708;49.466;11.176;2023-02-15T09:06:18;21.43;;;10.63;;
4698;SDS011;33708;49.466;11.176;2023-02-15T09:08:44;22.27;;;11.13;;
4698;SDS011;33708;49.466;11.176;2023-02-15T09:11:11;20.47;;;10.80;;
4698;SDS011;33708;49.466;11.176;2023-02-15T09:13:47;24.20;;;10.70;;
4698;SDS011;33708;49.466;11.176;2023-02-15T09:16:14;20.33;;;10.10;;
4698;SDS011;33708;49.466;11.176;2023-02-15T09:18:42;23.43;;;11.00;;
4698;SDS011;33708;49.466;11.176;2023-02-15T09:21:09;20.80;;;9.70;;
4698;SDS011;33708;49.466;11.176;2023-02-15T09:23:38;19.67;;;9.97;;
4698;SDS011;33708;49.466;11.176;2023-02-15T09:26:14;22.10;;;11.30;;
4698;SDS011;33708;49.466;11.176;2023-02-15T09:28:45;22.70;;;9.77;;
4698;SDS011;33708;49.466;11.176;2023-02-15T09:31:12;24.23;;;11.70;;
4698;SDS011;33708;49.466;11.176;2023-02-15T09:33:40;21.00;;;10.53;;
4698;SDS011;33708;49.466;11.176;2023-02-15T09:39:06;19.87;;;10.90;;
4698;SDS011;33708;49.466;11.176;2023-02-15T09:49:32;18.13;;;8.97;;
4698;SDS011;33708;49.466;11.176;2023-02-15T09:52:13;17.00;;;8.73;;
4698;SDS011;33708;49.466;11.176;2023-02-15T09:54:57;21.13;;;10.90;;
4698;SDS011;33708;49.466;11.176;2023-02-15T10:00:40;18.90;;;9.13;;
4698;SDS011;33708;49.466;11.176;2023-02-15T10:12:03;17.90;;;8.97;;
4698;SDS011;33708;49.466;11.176;2023-02-15T10:20:38;18.67;;;9.90;;
4698;SDS011;33708;49.466;11.176;2023-02-15T10:23:24;17.93;;;9.23;;
4698;SDS011;33708;49.466;11.176;2023-02-15T10:26:16;17.33;;;9.20;;
4698;SDS011;33708;49.466;11.176;2023-02-15T10:28:51;19.60;;;8.80;;
4698;SDS011;33708;49.466;11.176;2023-02-15T10:31:27;19.80;;;10.33;;
4698;SDS011;33708;49.466;11.176;2023-02-15T10:34:18;19.23;;;9.20;;
4698;SDS011;33708;49.466;11.176;2023-02-15T10:39:52;19.03;;;10.00;;
4698;SDS011;33708;49.466;11.176;2023-02-15T10:42:42;18.57;;;8.93;;
4698;SDS011;33708;49.466;11.176;2023-02-15T10:56:12;19.70;;;10.93;;
4698;SDS011;33708;49.466;11.176;2023-02-15T10:58:50;21.43;;;11.77;;
4698;SDS011;33708;49.466;11.176;2023-02-15T11:09:57;22.73;;;11.53;;
4698;SDS011;33708;49.466;11.176;2023-02-15T11:12:38;24.50;;;13.00;;
4698;SDS011;33708;49.466;11.176;2023-02-15T11:18:19;25.77;;;12.70;;
4698;SDS011;33708;49.466;11.176;2023-02-15T11:23:44;22.13;;;12.33;;
4698;SDS011;33708;49.466;11.176;2023-02-15T11:26:15;22.50;;;11.90;;
4698;SDS011;33708;49.466;11.176;2023-02-15T11:32:17;25.47;;;11.00;;
4698;SDS011;33708;49.466;11.176;2023-02-15T11:34:36;22.00;;;10.97;;
4698;SDS011;33708;49.466;11.176;2023-02-15T11:37:07;20.87;;;10.93;;
4698;SDS011;33708;49.466;11.176;2023-02-15T11:39:38;19.10;;;10.43;;
4698;SDS011;33708;49.466;11.176;2023-02-15T11:42:06;21.00;;;11.10;;
4698;SDS011;33708;49.466;11.176;2023-02-15T11:44:58;21.53;;;11.50;;
4698;SDS011;33708;49.466;11.176;2023-02-15T11:47:32;22.77;;;11.50;;
4698;SDS011;33708;49.466;11.176;2023-02-15T11:49:57;20.50;;;10.60;;
4698;SDS011;33708;49.466;11.176;2023-02-15T11:52:24;24.00;;;13.27;;
4698;SDS011;33708;49.466;11.176;2023-02-15T11:54:50;20.23;;;10.63;;
4698;SDS011;33708;49.466;11.176;2023-02-15T12:00:18;20.83;;;11.17;;
4698;SDS011;33708;49.466;11.176;2023-02-15T12:03:07;22.63;;;12.43;;
4698;SDS011;33708;49.466;11.176;2023-02-15T12:05:40;19.60;;;11.57;;
4698;SDS011;33708;49.466;11.176;2023-02-15T12:08:10;21.33;;;11.60;;
4698;SDS011;33708;49.466;11.176;2023-02-15T12:10:42;21.03;;;11.77;;
4698;SDS011;33708;49.466;11.176;2023-02-15T12:13:25;19.57;;;10.80;;
4698;SDS011;33708;49.466;11.176;2023-02-15T12:15:52;21.80;;;11.83;;
4698;SDS011;33708;49.466;11.176;2023-02-15T12:21:08;20.93;;;12.27;;
4698;SDS011;33708;49.466;11.176;2023-02-15T12:23:52;20.80;;;11.30;;
4698;SDS011;33708;49.466;11.176;2023-02-15T12:26:25;21.73;;;12.20;;
4698;SDS011;33708;49.466;11.176;2023-02-15T12:28:57;22.77;;;12.27;;
4698;SDS011;33708;49.466;11.176;2023-02-15T12:33:53;22.00;;;13.03;;
4698;SDS011;33708;49.466;11.176;2023-02-15T12:36:22;24.13;;;13.30;;
4698;SDS011;33708;49.466;11.176;2023-02-15T12:41:37;23.43;;;13.87;;
4698;SDS011;33708;49.466;11.176;2023-02-15T12:44:26;25.13;;;13.67;;
4698;SDS011;33708;49.466;11.176;2023-02-15T12:49:25;26.90;;;12.10;;
4698;SDS011;33708;49.466;11.176;2023-02-15T12:51:56;24.80;;;12.90;;
4698;SDS011;33708;49.466;11.176;2023-02-15T12:56:54;24.17;;;13.33;;
4698;SDS011;33708;49.466;11.176;2023-02-15T12:59:22;22.20;;;12.20;;
4698;SDS011;33708;49.466;11.176;2023-02-15T13:01:48;23.53;;;13.47;;
4698;SDS011;33708;49.466;11.176;2023-02-15T13:04:26;25.00;;;14.47;;
4698;SDS011;33708;49.466;11.176;2023-02-15T13:06:55;21.60;;;13.27;;
4698;SDS011;33708;49.466;11.176;2023-02-15T13:11:56;26.33;;;14.87;;
4698;SDS011;33708;49.466;11.176;2023-02-15T13:14:25;28.20;;;15.10;;
4698;SDS011;33708;49.466;11.176;2023-02-15T13:16:56;28.97;;;15.83;;
4698;SDS011;33708;49.466;11.176;2023-02-15T13:19:31;29.10;;;17.03;;
4698;SDS011;33708;49.466;11.176;2023-02-15T13:22:13;26.50;;;15.87;;
4698;SDS011;33708;49.466;11.176;2023-02-15T13:24:46;28.53;;;16.70;;
4698;SDS011;33708;49.466;11.176;2023-02-15T13:27:16;30.07;;;17.50;;
4698;SDS011;33708;49.466;11.176;2023-02-15T13:29:46;28.50;;;16.77;;
4698;SDS011;33708;49.466;11.176;2023-02-15T13:32:30;33.60;;;17.20;;
4698;SDS011;33708;49.466;11.176;2023-02-15T13:35:01;32.13;;;17.93;;
4698;SDS011;33708;49.466;11.176;2023-02-15T13:40:22;33.03;;;18.43;;
4698;SDS011;33708;49.466;11.176;2023-02-15T13:43:25;39.10;;;20.33;;
4698;SDS011;33708;49.466;11.176;2023-02-15T13:48:51;38.03;;;21.60;;
4698;SDS011;33708;49.466;11.176;2023-02-15T13:51:40;35.60;;;21.83;;
4698;SDS011;33708;49.466;11.176;2023-02-15T14:14:01;38.60;;;22.90;;
4698;SDS011;33708;49.466;11.176;2023-02-15T14:16:54;40.37;;;22.90;;
4698;SDS011;33708;49.466;11.176;2023-02-15T14:29:52;48.23;;;24.43;;
4698;SDS011;33708;49.466;11.176;2023-02-15T14:35:19;35.60;;;21.13;;
4698;SDS011;33708;49.466;11.176;2023-02-15T14:48:28;42.30;;;23.10;;
4698;SDS011;33708;49.466;11.176;2023-02-15T14:50:56;42.50;;;24.50;;
4698;SDS011;33708;49.466;11.176;2023-02-15T14:58:37;42.07;;;25.10;;
4698;SDS011;33708;49.466;11.176;2023-02-15T15:01:07;42.57;;;23.80;;
4698;SDS011;33708;49.466;11.176;2023-02-15T15:03:42;45.07;;;25.63;;
4698;SDS011;33708;49.466;11.176;2023-02-15T15:06:30;41.50;;;23.20;;
4698;SDS011;33708;49.466;11.176;2023-02-15T15:11:53;43.70;;;24.20;;
4698;SDS011;33708;49.466;11.176;2023-02-15T15:14:38;41.70;;;24.50;;
4698;SDS011;33708;49.466;11.176;2023-02-15T15:17:06;43.90;;;24.57;;
4698;SDS011;33708;49.466;11.176;2023-02-15T15:19:57;42.63;;;23.97;;
4698;SDS011;33708;49.466;11.176;2023-02-15T15:22:43;41.63;;;24.30;;
4698;SDS011;33708;49.466;11.176;2023-02-15T15:28:02;41.53;;;22.40;;
4698;SDS011;33708;49.466;11.176;2023-02-15T15:37:56;45.27;;;25.90;;
4698;SDS011;33708;49.466;11.176;2023-02-15T15:48:42;45.00;;;26.70;;
4698;SDS011;33708;49.466;11.176;2023-02-15T15:51:14;43.07;;;26.23;;
4698;SDS011;33708;49.466;11.176;2023-02-15T15:53:46;48.63;;;27.13;;
4698;SDS011;33708;49.466;11.176;2023-02-15T15:56:20;48.07;;;27.13;;
4698;SDS011;33708;49.466;11.176;2023-02-15T15:59:08;47.30;;;25.50;;
4698;SDS011;33708;49.466;11.176;2023-02-15T16:01:43;47.00;;;28.43;;
4698;SDS011;33708;49.466;11.176;2023-02-15T16:04:13;47.63;;;27.67;;
4698;SDS011;33708;49.466;11.176;2023-02-15T16:06:47;44.07;;;26.40;;
4698;SDS011;33708;49.466;11.176;2023-02-15T16:09:18;48.50;;;27.30;;
4698;SDS011;33708;49.466;11.176;2023-02-15T16:11:49;42.97;;;24.53;;
4698;SDS011;33708;49.466;11.176;2023-02-15T16:14:29;45.17;;;24.80;;
4698;SDS011;33708;49.466;11.176;2023-02-15T16:16:58;44.97;;;26.57;;
4698;SDS011;33708;49.466;11.176;2023-02-15T16:19:28;45.57;;;26.00;;
4698;SDS011;33708;49.466;11.176;2023-02-15T16:21:57;54.63;;;30.70;;
4698;SDS011;33708;49.466;11.176;2023-02-15T16:29:57;50.47;;;29.63;;
4698;SDS011;33708;49.466;11.176;2023-02-15T16:32:24;51.50;;;27.60;;
4698;SDS011;33708;49.466;11.176;2023-02-15T16:34:55;51.17;;;27.97;;
4698;SDS011;33708;49.466;11.176;2023-02-15T16:37:31;54.90;;;30.20;;
4698;SDS011;33708;49.466;11.176;2023-02-15T16:39:58;46.90;;;28.30;;
4698;SDS011;33708;49.466;11.176;2023-02-15T16:42:25;52.80;;;28.10;;
4698;SDS011;33708;49.466;11.176;2023-02-15T16:44:51;59.57;;;29.23;;
4698;SDS011;33708;49.466;11.176;2023-02-15T16:47:28;55.10;;;31.20;;
4698;SDS011;33708;49.466;11.176;2023-02-15T16:49:57;50.17;;;27.53;;
4698;SDS011;33708;49.466;11.176;2023-02-15T16:52:26;53.20;;;29.27;;
4698;SDS011;33708;49.466;11.176;2023-02-15T16:55:03;56.83;;;31.43;;
4698;SDS011;33708;49.466;11.176;2023-02-15T16:57:32;59.70;;;28.80;;
4698;SDS011;33708;49.466;11.176;2023-02-15T17:00:02;59.77;;;33.53;;
4698;SDS011;33708;49.466;11.176;2023-02-15T17:02:32;57.00;;;31.37;;
4698;SDS011;33708;49.466;11.176;2023-02-15T17:05:07;74.40;;;37.47;;
4698;SDS011;33708;49.466;11.176;2023-02-15T17:07:40;62.43;;;32.20;;
4698;SDS011;33708;49.466;11.176;2023-02-15T17:10:30;60.63;;;32.33;;
4698;SDS011;33708;49.466;11.176;2023-02-15T17:13:09;73.23;;;35.37;;
4698;SDS011;33708;49.466;11.176;2023-02-15T17:15:37;91.30;;;41.47;;
4698;SDS011;33708;49.466;11.176;2023-02-15T17:18:08;85.97;;;41.70;;
4698;SDS011;33708;49.466;11.176;2023-02-15T17:20:44;81.90;;;35.00;;
4698;SDS011;33708;49.466;11.176;2023-02-15T17:23:33;106.20;;;46.77;;
4698;SDS011;33708;49.466;11.176;2023-02-15T17:26:10;79.67;;;38.03;;
4698;SDS011;33708;49.466;11.176;2023-02-15T17:28:40;79.90;;;37.17;;
4698;SDS011;33708;49.466;11.176;2023-02-15T17:31:12;68.53;;;34.73;;
4698;SDS011;33708;49.466;11.176;2023-02-15T17:33:39;81.67;;;38.77;;
4698;SDS011;33708;49.466;11.176;2023-02-15T17:36:06;64.10;;;32.50;;
4698;SDS011;33708;49.466;11.176;2023-02-15T17:38:59;81.03;;;37.27;;
4698;SDS011;33708;49.466;11.176;2023-02-15T17:41:29;82.40;;;39.10;;
4698;SDS011;33708;49.466;11.176;2023-02-15T17:43:57;94.87;;;40.97;;
4698;SDS011;33708;49.466;11.176;2023-02-15T17:46:23;83.73;;;36.97;;
4698;SDS011;33708;49.466;11.176;2023-02-15T17:48:51;86.57;;;41.17;;
4698;SDS011;33708;49.466;11.176;2023-02-15T17:51:18;90.97;;;42.60;;
4698;SDS011;33708;49.466;11.176;2023-02-15T17:53:45;82.90;;;39.83;;